sensor_id;sensor_type;location;lat;lon;timestamp;P1;durP1;ratioP1;P2;durP2;ratioP2
17890;SDS011;9071;48.220;14.480;2022-09-14T00:03:02;22.00;;;13.48;;
17890;SDS011;9071;48.220;14.480;2022-09-14T00:08:04;18.63;;;12.18;;
17890;SDS011;9071;48.220;14.480;2022-09-14T00:13:08;15.90;;;11.73;;
17890;SDS011;9071;48.220;14.480;2022-09-14T00:18:12;15.75;;;11.40;;
17890;SDS011;9071;48.220;14.480;2022-09-14T00:23:14;14.73;;;10.73;;
17890;SDS011;9071;48.220;14.480;2022-09-14T00:28:17;16.25;;;11.70;;
17890;SDS011;9071;48.220;14.480;2022-09-14T00:33:19;16.52;;;10.68;;
17890;SDS011;9071;48.220;14.480;2022-09-14T00:38:21;17.58;;;11.18;;
17890;SDS011;9071;48.220;14.480;2022-09-14T00:43:28;20.15;;;12.57;;
17890;SDS011;9071;48.220;14.480;2022-09-14T00:48:30;13.32;;;10.68;;
17890;SDS011;9071;48.220;14.480;2022-09-14T00:53:32;16.85;;;11.52;;
17890;SDS011;9071;48.220;14.480;2022-09-14T00:58:36;18.70;;;12.48;;
17890;SDS011;9071;48.220;14.480;2022-09-14T01:03:39;19.02;;;13.15;;
17890;SDS011;9071;48.220;14.480;2022-09-14T01:14:18;14.73;;;11.57;;
17890;SDS011;9071;48.220;14.480;2022-09-14T01:19:32;15.25;;;11.65;;
17890;SDS011;9071;48.220;14.480;2022-09-14T01:24:54;15.63;;;11.05;;
17890;SDS011;9071;48.220;14.480;2022-09-14T01:30:08;16.80;;;11.98;;
17890;SDS011;9071;48.220;14.480;2022-09-14T01:35:14;16.48;;;10.88;;
17890;SDS011;9071;48.220;14.480;2022-09-14T01:40:23;15.15;;;11.43;;
17890;SDS011;9071;48.220;14.480;2022-09-14T01:45:31;16.65;;;12.43;;
17890;SDS011;9071;48.220;14.480;2022-09-14T01:50:37;17.00;;;12.82;;
17890;SDS011;9071;48.220;14.480;2022-09-14T01:55:42;14.25;;;11.50;;
17890;SDS011;9071;48.220;14.480;2022-09-14T02:00:50;18.88;;;12.32;;
17890;SDS011;9071;48.220;14.480;2022-09-14T02:05:55;16.48;;;12.57;;
17890;SDS011;9071;48.220;14.480;2022-09-14T02:11:01;14.95;;;11.10;;
17890;SDS011;9071;48.220;14.480;2022-09-14T02:16:05;15.48;;;11.40;;
17890;SDS011;9071;48.220;14.480;2022-09-14T02:21:08;17.30;;;12.07;;
17890;SDS011;9071;48.220;14.480;2022-09-14T02:26:14;14.80;;;11.43;;
17890;SDS011;9071;48.220;14.480;2022-09-14T02:31:21;13.27;;;11.43;;
17890;SDS011;9071;48.220;14.480;2022-09-14T02:36:31;17.27;;;11.75;;
17890;SDS011;9071;48.220;14.480;2022-09-14T02:41:44;19.55;;;12.10;;
17890;SDS011;9071;48.220;14.480;2022-09-14T02:46:53;16.85;;;11.57;;
17890;SDS011;9071;48.220;14.480;2022-09-14T02:52:00;14.02;;;10.55;;
17890;SDS011;9071;48.220;14.480;2022-09-14T02:57:07;16.48;;;11.32;;
17890;SDS011;9071;48.220;14.480;2022-09-14T03:02:11;15.25;;;11.25;;
17890;SDS011;9071;48.220;14.480;2022-09-14T03:07:13;14.10;;;11.63;;
17890;SDS011;9071;48.220;14.480;2022-09-14T03:12:15;12.98;;;10.30;;
17890;SDS011;9071;48.220;14.480;2022-09-14T03:17:18;16.65;;;11.00;;
17890;SDS011;9071;48.220;14.480;2022-09-14T03:22:20;15.75;;;10.88;;
17890;SDS011;9071;48.220;14.480;2022-09-14T03:27:23;13.95;;;11.70;;
17890;SDS011;9071;48.220;14.480;2022-09-14T03:32:26;20.08;;;13.45;;
17890;SDS011;9071;48.220;14.480;2022-09-14T03:37:28;19.05;;;13.32;;
17890;SDS011;9071;48.220;14.480;2022-09-14T03:42:30;14.95;;;11.48;;
17890;SDS011;9071;48.220;14.480;2022-09-14T03:47:34;17.27;;;12.15;;
17890;SDS011;9071;48.220;14.480;2022-09-14T03:52:36;17.27;;;11.57;;
17890;SDS011;9071;48.220;14.480;2022-09-14T03:57:38;16.45;;;12.38;;
17890;SDS011;9071;48.220;14.480;2022-09-14T04:02:41;17.88;;;12.77;;
17890;SDS011;9071;48.220;14.480;2022-09-14T04:07:44;20.60;;;14.18;;
17890;SDS011;9071;48.220;14.480;2022-09-14T04:12:46;23.08;;;14.82;;
17890;SDS011;9071;48.220;14.480;2022-09-14T04:17:49;27.65;;;14.80;;
17890;SDS011;9071;48.220;14.480;2022-09-14T04:22:51;20.77;;;14.70;;
17890;SDS011;9071;48.220;14.480;2022-09-14T04:27:53;20.13;;;13.60;;
17890;SDS011;9071;48.220;14.480;2022-09-14T04:32:57;22.13;;;14.63;;
17890;SDS011;9071;48.220;14.480;2022-09-14T04:37:59;21.77;;;14.10;;
17890;SDS011;9071;48.220;14.480;2022-09-14T04:43:01;21.73;;;15.20;;
17890;SDS011;9071;48.220;14.480;2022-09-14T04:48:05;22.50;;;14.63;;
17890;SDS011;9071;48.220;14.480;2022-09-14T04:53:07;18.63;;;13.88;;
17890;SDS011;9071;48.220;14.480;2022-09-14T04:58:10;20.63;;;14.20;;
17890;SDS011;9071;48.220;14.480;2022-09-14T05:03:13;18.45;;;14.23;;
17890;SDS011;9071;48.220;14.480;2022-09-14T05:08:15;19.00;;;13.43;;
17890;SDS011;9071;48.220;14.480;2022-09-14T05:13:17;20.98;;;14.05;;
17890;SDS011;9071;48.220;14.480;2022-09-14T05:18:20;20.80;;;14.27;;
17890;SDS011;9071;48.220;14.480;2022-09-14T05:23:23;15.90;;;12.57;;
17890;SDS011;9071;48.220;14.480;2022-09-14T05:28:25;22.45;;;13.32;;
17890;SDS011;9071;48.220;14.480;2022-09-14T05:33:29;30.38;;;13.55;;
17890;SDS011;9071;48.220;14.480;2022-09-14T05:38:31;40.97;;;15.00;;
17890;SDS011;9071;48.220;14.480;2022-09-14T05:43:35;33.88;;;14.07;;
17890;SDS011;9071;48.220;14.480;2022-09-14T05:48:39;38.67;;;14.80;;
17890;SDS011;9071;48.220;14.480;2022-09-14T05:53:41;40.40;;;16.02;;
17890;SDS011;9071;48.220;14.480;2022-09-14T05:58:47;39.20;;;14.15;;
17890;SDS011;9071;48.220;14.480;2022-09-14T06:03:51;18.63;;;12.07;;
17890;SDS011;9071;48.220;14.480;2022-09-14T06:08:54;19.58;;;10.60;;
17890;SDS011;9071;48.220;14.480;2022-09-14T06:13:57;21.50;;;9.18;;
17890;SDS011;9071;48.220;14.480;2022-09-14T06:19:01;15.55;;;7.55;;
17890;SDS011;9071;48.220;14.480;2022-09-14T06:24:03;11.00;;;7.05;;
17890;SDS011;9071;48.220;14.480;2022-09-14T06:29:05;16.92;;;7.63;;
17890;SDS011;9071;48.220;14.480;2022-09-14T06:34:08;10.30;;;7.07;;
17890;SDS011;9071;48.220;14.480;2022-09-14T06:39:10;22.92;;;8.88;;
17890;SDS011;9071;48.220;14.480;2022-09-14T06:44:13;17.67;;;8.55;;
17890;SDS011;9071;48.220;14.480;2022-09-14T06:49:16;13.85;;;8.38;;
17890;SDS011;9071;48.220;14.480;2022-09-14T06:54:22;13.43;;;8.60;;
17890;SDS011;9071;48.220;14.480;2022-09-14T06:59:24;15.77;;;8.32;;
17890;SDS011;9071;48.220;14.480;2022-09-14T07:04:28;9.98;;;8.30;;
17890;SDS011;9071;48.220;14.480;2022-09-14T07:09:30;40.67;;;10.20;;
17890;SDS011;9071;48.220;14.480;2022-09-14T07:14:32;40.88;;;10.32;;
17890;SDS011;9071;48.220;14.480;2022-09-14T07:19:37;24.52;;;11.20;;
17890;SDS011;9071;48.220;14.480;2022-09-14T07:24:39;22.13;;;10.65;;
17890;SDS011;9071;48.220;14.480;2022-09-14T07:29:41;16.70;;;10.52;;
17890;SDS011;9071;48.220;14.480;2022-09-14T07:34:44;18.33;;;10.65;;
17890;SDS011;9071;48.220;14.480;2022-09-14T07:39:47;16.75;;;10.90;;
17890;SDS011;9071;48.220;14.480;2022-09-14T07:44:49;20.77;;;10.40;;
17890;SDS011;9071;48.220;14.480;2022-09-14T07:49:52;32.20;;;19.52;;
17890;SDS011;9071;48.220;14.480;2022-09-14T07:54:55;24.90;;;18.02;;
17890;SDS011;9071;48.220;14.480;2022-09-14T07:59:57;21.95;;;13.13;;
17890;SDS011;9071;48.220;14.480;2022-09-14T08:05:00;18.63;;;12.07;;
17890;SDS011;9071;48.220;14.480;2022-09-14T08:10:02;16.45;;;10.27;;
17890;SDS011;9071;48.220;14.480;2022-09-14T08:15:05;12.57;;;8.93;;
17890;SDS011;9071;48.220;14.480;2022-09-14T08:20:10;13.75;;;9.20;;
17890;SDS011;9071;48.220;14.480;2022-09-14T08:25:12;11.77;;;9.57;;
17890;SDS011;9071;48.220;14.480;2022-09-14T08:30:14;13.75;;;10.63;;
17890;SDS011;9071;48.220;14.480;2022-09-14T08:35:17;16.33;;;12.65;;
17890;SDS011;9071;48.220;14.480;2022-09-14T08:40:19;20.70;;;14.73;;
17890;SDS011;9071;48.220;14.480;2022-09-14T08:45:21;34.45;;;23.45;;
17890;SDS011;9071;48.220;14.480;2022-09-14T08:50:26;32.75;;;22.00;;
17890;SDS011;9071;48.220;14.480;2022-09-14T08:55:32;26.00;;;18.33;;
17890;SDS011;9071;48.220;14.480;2022-09-14T09:00:38;17.55;;;13.35;;
17890;SDS011;9071;48.220;14.480;2022-09-14T09:05:50;24.92;;;13.35;;
17890;SDS011;9071;48.220;14.480;2022-09-14T09:10:53;21.05;;;11.50;;
17890;SDS011;9071;48.220;14.480;2022-09-14T09:15:59;18.45;;;10.30;;
17890;SDS011;9071;48.220;14.480;2022-09-14T09:21:07;24.05;;;10.05;;
17890;SDS011;9071;48.220;14.480;2022-09-14T09:26:13;24.50;;;10.38;;
17890;SDS011;9071;48.220;14.480;2022-09-14T09:31:33;19.98;;;8.35;;
17890;SDS011;9071;48.220;14.480;2022-09-14T09:36:46;18.08;;;8.82;;
17890;SDS011;9071;48.220;14.480;2022-09-14T09:41:50;14.40;;;9.10;;
17890;SDS011;9071;48.220;14.480;2022-09-14T09:46:58;19.08;;;9.27;;
17890;SDS011;9071;48.220;14.480;2022-09-14T09:52:07;15.38;;;8.48;;
17890;SDS011;9071;48.220;14.480;2022-09-14T09:57:18;10.90;;;7.68;;
17890;SDS011;9071;48.220;14.480;2022-09-14T10:02:25;13.32;;;8.30;;
17890;SDS011;9071;48.220;14.480;2022-09-14T10:07:30;13.52;;;8.02;;
17890;SDS011;9071;48.220;14.480;2022-09-14T10:12:34;14.98;;;10.77;;
17890;SDS011;9071;48.220;14.480;2022-09-14T10:17:38;28.50;;;13.25;;
17890;SDS011;9071;48.220;14.480;2022-09-14T10:22:42;39.33;;;12.55;;
17890;SDS011;9071;48.220;14.480;2022-09-14T10:27:45;40.00;;;11.57;;
17890;SDS011;9071;48.220;14.480;2022-09-14T10:32:51;25.45;;;10.10;;
17890;SDS011;9071;48.220;14.480;2022-09-14T10:38:03;14.35;;;9.10;;
17890;SDS011;9071;48.220;14.480;2022-09-14T10:43:26;14.52;;;9.32;;
17890;SDS011;9071;48.220;14.480;2022-09-14T10:48:44;12.85;;;8.07;;
17890;SDS011;9071;48.220;14.480;2022-09-14T10:54:00;16.23;;;8.00;;
17890;SDS011;9071;48.220;14.480;2022-09-14T10:59:18;18.45;;;6.82;;
17890;SDS011;9071;48.220;14.480;2022-09-14T11:10:02;18.63;;;6.78;;
17890;SDS011;9071;48.220;14.480;2022-09-14T11:15:22;16.05;;;6.03;;
17890;SDS011;9071;48.220;14.480;2022-09-14T11:20:30;18.20;;;6.65;;
17890;SDS011;9071;48.220;14.480;2022-09-14T11:25:42;28.67;;;6.15;;
17890;SDS011;9071;48.220;14.480;2022-09-14T11:30:48;14.25;;;5.82;;
17890;SDS011;9071;48.220;14.480;2022-09-14T11:35:53;10.63;;;5.25;;
17890;SDS011;9071;48.220;14.480;2022-09-14T11:41:09;10.07;;;5.30;;
17890;SDS011;9071;48.220;14.480;2022-09-14T11:46:19;13.52;;;5.80;;
17890;SDS011;9071;48.220;14.480;2022-09-14T11:51:27;9.23;;;5.38;;
17890;SDS011;9071;48.220;14.480;2022-09-14T11:56:34;10.52;;;5.47;;
17890;SDS011;9071;48.220;14.480;2022-09-14T12:01:37;10.23;;;6.00;;
17890;SDS011;9071;48.220;14.480;2022-09-14T12:06:41;10.07;;;5.57;;
17890;SDS011;9071;48.220;14.480;2022-09-14T12:12:03;11.00;;;5.60;;
17890;SDS011;9071;48.220;14.480;2022-09-14T12:17:25;9.02;;;5.90;;
17890;SDS011;9071;48.220;14.480;2022-09-14T12:22:31;13.20;;;5.00;;
17890;SDS011;9071;48.220;14.480;2022-09-14T12:27:37;9.38;;;4.80;;
17890;SDS011;9071;48.220;14.480;2022-09-14T12:32:41;12.38;;;4.78;;
17890;SDS011;9071;48.220;14.480;2022-09-14T12:37:44;7.63;;;4.13;;
17890;SDS011;9071;48.220;14.480;2022-09-14T12:42:47;13.55;;;4.95;;
17890;SDS011;9071;48.220;14.480;2022-09-14T12:47:49;15.98;;;5.03;;
17890;SDS011;9071;48.220;14.480;2022-09-14T12:52:56;11.70;;;4.35;;
17890;SDS011;9071;48.220;14.480;2022-09-14T12:58:08;14.10;;;4.20;;
17890;SDS011;9071;48.220;14.480;2022-09-14T13:08:48;11.10;;;4.30;;
17890;SDS011;9071;48.220;14.480;2022-09-14T13:13:55;8.27;;;3.72;;
17890;SDS011;9071;48.220;14.480;2022-09-14T13:18:59;6.82;;;3.42;;
17890;SDS011;9071;48.220;14.480;2022-09-14T13:24:17;9.55;;;4.25;;
17890;SDS011;9071;48.220;14.480;2022-09-14T13:29:26;8.88;;;3.67;;
17890;SDS011;9071;48.220;14.480;2022-09-14T13:34:29;14.40;;;3.85;;
17890;SDS011;9071;48.220;14.480;2022-09-14T13:39:34;8.73;;;3.85;;
17890;SDS011;9071;48.220;14.480;2022-09-14T13:44:43;9.60;;;4.20;;
17890;SDS011;9071;48.220;14.480;2022-09-14T13:49:46;5.93;;;3.55;;
17890;SDS011;9071;48.220;14.480;2022-09-14T13:54:50;13.95;;;4.18;;
17890;SDS011;9071;48.220;14.480;2022-09-14T14:05:24;6.70;;;3.38;;
17890;SDS011;9071;48.220;14.480;2022-09-14T14:10:29;4.30;;;3.13;;
17890;SDS011;9071;48.220;14.480;2022-09-14T14:15:36;9.05;;;3.75;;
17890;SDS011;9071;48.220;14.480;2022-09-14T14:20:41;12.35;;;3.50;;
17890;SDS011;9071;48.220;14.480;2022-09-14T14:25:43;5.60;;;3.65;;
17890;SDS011;9071;48.220;14.480;2022-09-14T14:30:49;7.38;;;3.78;;
17890;SDS011;9071;48.220;14.480;2022-09-14T14:35:55;8.75;;;3.65;;
17890;SDS011;9071;48.220;14.480;2022-09-14T14:40:57;7.28;;;3.33;;
17890;SDS011;9071;48.220;14.480;2022-09-14T14:46:01;6.57;;;3.40;;
17890;SDS011;9071;48.220;14.480;2022-09-14T14:51:08;11.55;;;3.85;;
17890;SDS011;9071;48.220;14.480;2022-09-14T14:56:13;6.93;;;3.72;;
17890;SDS011;9071;48.220;14.480;2022-09-14T15:01:16;6.85;;;3.85;;
17890;SDS011;9071;48.220;14.480;2022-09-14T15:06:19;9.68;;;4.60;;
17890;SDS011;9071;48.220;14.480;2022-09-14T15:11:22;12.20;;;5.13;;
17890;SDS011;9071;48.220;14.480;2022-09-14T15:16:26;13.40;;;5.07;;
17890;SDS011;9071;48.220;14.480;2022-09-14T15:21:28;10.32;;;5.25;;
17890;SDS011;9071;48.220;14.480;2022-09-14T15:26:30;13.02;;;6.00;;
17890;SDS011;9071;48.220;14.480;2022-09-14T15:31:35;11.43;;;6.25;;
17890;SDS011;9071;48.220;14.480;2022-09-14T15:36:37;15.82;;;5.35;;
17890;SDS011;9071;48.220;14.480;2022-09-14T15:41:41;12.35;;;4.55;;
17890;SDS011;9071;48.220;14.480;2022-09-14T15:46:46;8.52;;;4.85;;
17890;SDS011;9071;48.220;14.480;2022-09-14T15:51:48;11.05;;;4.95;;
17890;SDS011;9071;48.220;14.480;2022-09-14T15:56:54;10.68;;;3.90;;
17890;SDS011;9071;48.220;14.480;2022-09-14T16:01:59;10.13;;;5.78;;
17890;SDS011;9071;48.220;14.480;2022-09-14T16:07:02;16.52;;;8.63;;
17890;SDS011;9071;48.220;14.480;2022-09-14T16:12:09;10.82;;;5.35;;
17890;SDS011;9071;48.220;14.480;2022-09-14T16:17:13;11.60;;;4.50;;
17890;SDS011;9071;48.220;14.480;2022-09-14T16:22:15;9.70;;;3.92;;
17890;SDS011;9071;48.220;14.480;2022-09-14T16:27:18;6.47;;;3.80;;
17890;SDS011;9071;48.220;14.480;2022-09-14T16:32:22;6.93;;;4.00;;
17890;SDS011;9071;48.220;14.480;2022-09-14T16:37:24;9.60;;;4.22;;
17890;SDS011;9071;48.220;14.480;2022-09-14T16:42:27;7.03;;;4.45;;
17890;SDS011;9071;48.220;14.480;2022-09-14T16:47:30;8.73;;;4.70;;
17890;SDS011;9071;48.220;14.480;2022-09-14T16:52:32;10.65;;;4.68;;
17890;SDS011;9071;48.220;14.480;2022-09-14T16:57:34;6.57;;;4.85;;
17890;SDS011;9071;48.220;14.480;2022-09-14T17:02:37;10.00;;;5.75;;
17890;SDS011;9071;48.220;14.480;2022-09-14T17:07:39;9.55;;;6.00;;
17890;SDS011;9071;48.220;14.480;2022-09-14T17:12:42;7.70;;;5.90;;
17890;SDS011;9071;48.220;14.480;2022-09-14T17:17:47;11.68;;;5.30;;
17890;SDS011;9071;48.220;14.480;2022-09-14T17:22:49;6.50;;;4.95;;
17890;SDS011;9071;48.220;14.480;2022-09-14T17:27:51;10.13;;;5.65;;
17890;SDS011;9071;48.220;14.480;2022-09-14T17:32:54;7.85;;;5.13;;
17890;SDS011;9071;48.220;14.480;2022-09-14T17:37:56;9.38;;;6.55;;
17890;SDS011;9071;48.220;14.480;2022-09-14T17:42:59;11.15;;;6.40;;
17890;SDS011;9071;48.220;14.480;2022-09-14T17:48:02;9.98;;;5.60;;
17890;SDS011;9071;48.220;14.480;2022-09-14T17:53:05;13.52;;;7.00;;
17890;SDS011;9071;48.220;14.480;2022-09-14T17:58:07;12.43;;;8.73;;
17890;SDS011;9071;48.220;14.480;2022-09-14T18:03:10;13.98;;;8.80;;
17890;SDS011;9071;48.220;14.480;2022-09-14T18:08:13;11.48;;;4.90;;
17890;SDS011;9071;48.220;14.480;2022-09-14T18:13:14;7.57;;;2.20;;
17890;SDS011;9071;48.220;14.480;2022-09-14T18:18:18;5.60;;;1.77;;
17890;SDS011;9071;48.220;14.480;2022-09-14T18:23:20;8.38;;;2.50;;
17890;SDS011;9071;48.220;14.480;2022-09-14T18:28:22;6.32;;;1.92;;
17890;SDS011;9071;48.220;14.480;2022-09-14T18:33:26;5.68;;;1.60;;
17890;SDS011;9071;48.220;14.480;2022-09-14T18:38:28;4.28;;;0.98;;
17890;SDS011;9071;48.220;14.480;2022-09-14T18:43:30;3.53;;;1.00;;
17890;SDS011;9071;48.220;14.480;2022-09-14T18:48:34;2.38;;;1.30;;
17890;SDS011;9071;48.220;14.480;2022-09-14T18:53:38;8.50;;;2.00;;
17890;SDS011;9071;48.220;14.480;2022-09-14T18:58:41;4.63;;;1.52;;
17890;SDS011;9071;48.220;14.480;2022-09-14T19:03:46;2.45;;;1.33;;
17890;SDS011;9071;48.220;14.480;2022-09-14T19:08:48;4.55;;;2.65;;
17890;SDS011;9071;48.220;14.480;2022-09-14T19:13:53;5.00;;;2.40;;
17890;SDS011;9071;48.220;14.480;2022-09-14T19:18:57;4.85;;;2.08;;
17890;SDS011;9071;48.220;14.480;2022-09-14T19:24:00;5.10;;;1.90;;
17890;SDS011;9071;48.220;14.480;2022-09-14T19:29:04;3.78;;;2.10;;
17890;SDS011;9071;48.220;14.480;2022-09-14T19:34:10;5.47;;;2.40;;
17890;SDS011;9071;48.220;14.480;2022-09-14T19:39:12;5.25;;;2.05;;
17890;SDS011;9071;48.220;14.480;2022-09-14T19:44:14;4.05;;;2.55;;
17890;SDS011;9071;48.220;14.480;2022-09-14T19:49:18;4.90;;;3.00;;
17890;SDS011;9071;48.220;14.480;2022-09-14T19:54:22;6.15;;;2.70;;
17890;SDS011;9071;48.220;14.480;2022-09-14T19:59:25;4.28;;;2.80;;
17890;SDS011;9071;48.220;14.480;2022-09-14T20:04:28;5.57;;;2.70;;
17890;SDS011;9071;48.220;14.480;2022-09-14T20:09:30;6.40;;;3.10;;
17890;SDS011;9071;48.220;14.480;2022-09-14T20:14:32;5.57;;;3.17;;
17890;SDS011;9071;48.220;14.480;2022-09-14T20:19:36;7.35;;;3.70;;
17890;SDS011;9071;48.220;14.480;2022-09-14T20:24:38;7.50;;;3.50;;
17890;SDS011;9071;48.220;14.480;2022-09-14T20:29:41;7.07;;;3.42;;
17890;SDS011;9071;48.220;14.480;2022-09-14T20:34:44;5.63;;;3.10;;
17890;SDS011;9071;48.220;14.480;2022-09-14T20:39:46;5.88;;;3.40;;
17890;SDS011;9071;48.220;14.480;2022-09-14T20:44:48;4.85;;;2.97;;
17890;SDS011;9071;48.220;14.480;2022-09-14T20:49:52;6.07;;;3.33;;
17890;SDS011;9071;48.220;14.480;2022-09-14T20:54:54;7.35;;;3.35;;
17890;SDS011;9071;48.220;14.480;2022-09-14T20:59:56;8.73;;;3.05;;
17890;SDS011;9071;48.220;14.480;2022-09-14T21:04:59;6.00;;;3.90;;
17890;SDS011;9071;48.220;14.480;2022-09-14T21:10:01;10.80;;;4.75;;
17890;SDS011;9071;48.220;14.480;2022-09-14T21:15:04;8.77;;;4.25;;
17890;SDS011;9071;48.220;14.480;2022-09-14T21:20:08;6.28;;;4.72;;
17890;SDS011;9071;48.220;14.480;2022-09-14T21:25:10;9.75;;;5.10;;
17890;SDS011;9071;48.220;14.480;2022-09-14T21:30:12;8.55;;;4.88;;
17890;SDS011;9071;48.220;14.480;2022-09-14T21:35:16;8.95;;;4.65;;
17890;SDS011;9071;48.220;14.480;2022-09-14T21:40:19;8.10;;;4.78;;
17890;SDS011;9071;48.220;14.480;2022-09-14T21:45:21;6.88;;;4.80;;
17890;SDS011;9071;48.220;14.480;2022-09-14T21:50:25;9.98;;;5.60;;
17890;SDS011;9071;48.220;14.480;2022-09-14T21:55:27;8.65;;;6.13;;
17890;SDS011;9071;48.220;14.480;2022-09-14T22:00:29;8.63;;;5.53;;
17890;SDS011;9071;48.220;14.480;2022-09-14T22:05:32;7.25;;;5.65;;
17890;SDS011;9071;48.220;14.480;2022-09-14T22:10:35;7.88;;;5.97;;
17890;SDS011;9071;48.220;14.480;2022-09-14T22:15:37;8.70;;;6.18;;
17890;SDS011;9071;48.220;14.480;2022-09-14T22:20:40;8.98;;;5.78;;
17890;SDS011;9071;48.220;14.480;2022-09-14T22:25:42;9.23;;;5.95;;
17890;SDS011;9071;48.220;14.480;2022-09-14T22:30:45;11.95;;;5.80;;
17890;SDS011;9071;48.220;14.480;2022-09-14T22:35:52;10.80;;;5.95;;
17890;SDS011;9071;48.220;14.480;2022-09-14T22:40:56;8.98;;;6.30;;
17890;SDS011;9071;48.220;14.480;2022-09-14T22:45:59;15.50;;;7.43;;
17890;SDS011;9071;48.220;14.480;2022-09-14T22:51:03;13.60;;;7.55;;
17890;SDS011;9071;48.220;14.480;2022-09-14T22:56:07;12.05;;;8.27;;
17890;SDS011;9071;48.220;14.480;2022-09-14T23:01:11;10.63;;;6.35;;
17890;SDS011;9071;48.220;14.480;2022-09-14T23:06:15;12.73;;;7.47;;
17890;SDS011;9071;48.220;14.480;2022-09-14T23:11:17;9.85;;;6.43;;
17890;SDS011;9071;48.220;14.480;2022-09-14T23:16:20;12.75;;;6.90;;
17890;SDS011;9071;48.220;14.480;2022-09-14T23:21:27;10.48;;;6.78;;
17890;SDS011;9071;48.220;14.480;2022-09-14T23:26:30;16.15;;;7.53;;
17890;SDS011;9071;48.220;14.480;2022-09-14T23:31:33;15.43;;;8.00;;
17890;SDS011;9071;48.220;14.480;2022-09-14T23:36:37;12.27;;;6.75;;
17890;SDS011;9071;48.220;14.480;2022-09-14T23:41:38;8.48;;;6.35;;
17890;SDS011;9071;48.220;14.480;2022-09-14T23:46:40;13.40;;;7.97;;
17890;SDS011;9071;48.220;14.480;2022-09-14T23:51:44;14.80;;;9.05;;
17890;SDS011;9071;48.220;14.480;2022-09-14T23:56:46;14.80;;;9.15;;
